Time,TemperatureF,DewpointF,PressureIn,WindDirection,WindDirectionDegrees,WindSpeedMPH,WindSpeedGustMPH,Humidity,HourlyPrecipIn,Conditions,Clouds,dailyrainin,SoftwareType,DateUTC
2013-01-12 00:00:00,51.0,49.6,30.08,North,0,0.0,0.0,95,0.00,,---,0.00,VWS V14.01,2013-01-12 05:00:00,
2013-01-12 00:30:00,50.8,49.4,30.07,North,0,0.0,0.0,95,0.00,,---,0.00,VWS V14.01,2013-01-12 05:30:00,
2013-01-12 01:00:00,50.8,49.4,30.08,North,0,0.0,0.0,95,0.00,,---,0.00,VWS V14.01,2013-01-12 06:00:00,
2013-01-12 01:30:00,50.8,49.4,30.07,North,0,0.0,0.0,95,0.00,,---,0.00,VWS V14.01,2013-01-12 06:30:00,
2013-01-12 02:00:00,51.0,49.6,30.07,North,0,0.0,0.0,95,0.00,,---,0.00,VWS V14.01,2013-01-12 07:00:00,
2013-01-12 02:30:00,51.0,49.9,30.07,North,0,0.0,0.0,96,0.00,,---,0.00,VWS V14.01,2013-01-12 07:30:00,
2013-01-12 03:00:00,51.0,49.9,30.07,North,0,0.0,0.0,96,0.00,,---,0.00,VWS V14.01,2013-01-12 08:00:00,
2013-01-12 03:30:00,51.0,49.9,30.07,North,0,0.0,0.0,96,0.00,,---,0.00,VWS V14.01,2013-01-12 08:30:00,
2013-01-12 04:00:00,51.1,50.0,30.07,North,0,0.0,0.0,96,0.00,,---,0.00,VWS V14.01,2013-01-12 09:00:00,
2013-01-12 04:30:00,51.0,49.9,30.06,North,0,0.0,0.0,96,0.00,,---,0.00,VWS V14.01,2013-01-12 09:30:00,
2013-01-12 05:00:00,50.8,49.7,30.06,North,0,0.0,0.0,96,0.00,,---,0.00,VWS V14.01,2013-01-12 10:00:00,
2013-01-12 05:30:00,51.0,49.9,30.05,North,0,0.0,0.0,96,0.00,,---,0.00,VWS V14.01,2013-01-12 10:30:00,
2013-01-12 06:00:00,51.0,49.9,30.05,North,0,0.0,0.0,96,0.00,,---,0.00,VWS V14.01,2013-01-12 11:00:00,
2013-01-12 06:30:00,50.8,49.7,30.04,North,0,0.0,0.0,96,0.00,,---,0.00,VWS V14.01,2013-01-12 11:30:00,
2013-01-12 07:00:00,50.7,49.6,30.05,North,0,0.0,0.0,96,0.00,,---,0.00,VWS V14.01,2013-01-12 12:00:00,
2013-01-12 07:30:00,50.8,49.7,30.06,North,0,0.0,0.0,96,0.00,,---,0.00,VWS V14.01,2013-01-12 12:30:00,
2013-01-12 08:00:00,51.1,50.0,30.07,North,0,0.0,0.0,96,0.00,,---,0.00,VWS V14.01,2013-01-12 13:00:00,
2013-01-12 08:30:00,51.4,50.3,30.07,North,0,0.0,0.0,96,0.00,,---,0.00,VWS V14.01,2013-01-12 13:30:00,
2013-01-12 09:00:00,51.9,50.8,30.08,North,0,0.0,0.0,96,0.00,,---,0.00,VWS V14.01,2013-01-12 14:00:00,
2013-01-12 09:30:00,52.6,51.5,30.08,North,0,0.0,0.0,96,0.00,,---,0.00,VWS V14.01,2013-01-12 14:30:00,
2013-01-12 10:00:00,53.9,52.8,30.08,North,0,0.0,0.0,96,0.00,,---,0.00,VWS V14.01,2013-01-12 15:00:00,
2013-01-12 10:30:00,55.6,54.5,30.09,North,0,0.0,0.0,96,0.00,,---,0.00,VWS V14.01,2013-01-12 15:30:00,
2013-01-12 11:00:00,56.3,55.2,30.09,North,0,0.0,0.0,96,0.00,,---,0.00,VWS V14.01,2013-01-12 16:00:00,
2013-01-12 11:30:00,56.7,55.6,30.08,North,0,0.0,0.0,96,0.00,,---,0.00,VWS V14.01,2013-01-12 16:30:00,
2013-01-12 12:00:00,57.5,56.4,30.08,North,0,0.0,0.0,96,0.00,,---,0.00,VWS V14.01,2013-01-12 17:00:00,
2013-01-12 12:30:00,58.3,57.2,30.06,North,0,0.0,0.0,96,0.00,,---,0.00,VWS V14.01,2013-01-12 17:30:00,
2013-01-12 13:00:00,60.5,58.8,30.06,North,0,0.0,0.0,94,0.00,,---,0.00,VWS V14.01,2013-01-12 18:00:00,
2013-01-12 13:30:00,62.4,58.2,30.04,North,0,0.0,0.0,86,0.00,,---,0.00,VWS V14.01,2013-01-12 18:30:00,
2013-01-12 14:00:00,66.3,58.9,30.03,North,0,0.0,0.0,77,0.00,,---,0.00,VWS V14.01,2013-01-12 19:00:00,
2013-01-12 14:30:00,67.9,58.9,30.03,North,0,0.0,0.0,73,0.00,,---,0.00,VWS V14.01,2013-01-12 19:30:00,
2013-01-12 15:00:00,69.8,60.0,30.03,North,0,0.0,0.0,71,0.00,,---,0.00,VWS V14.01,2013-01-12 20:00:00,
2013-01-12 15:30:00,71.5,60.4,30.03,North,0,0.0,0.0,68,0.00,,---,0.00,VWS V14.01,2013-01-12 20:30:00,
2013-01-12 16:00:00,72.8,60.8,30.03,North,0,0.0,0.0,66,0.00,,---,0.00,VWS V14.01,2013-01-12 21:00:00,
2013-01-12 16:30:00,73.2,61.6,30.03,North,0,0.0,0.0,67,0.00,,---,0.00,VWS V14.01,2013-01-12 21:30:00,
2013-01-12 17:00:00,73.2,60.7,30.04,North,0,0.0,0.0,65,0.00,,---,0.00,VWS V14.01,2013-01-12 22:00:00,
2013-01-12 17:30:00,72.7,61.1,30.03,North,0,0.0,0.0,67,0.00,,---,0.00,VWS V14.01,2013-01-12 22:30:00,
2013-01-12 18:00:00,71.6,62.1,30.03,North,0,0.0,0.0,72,0.00,,---,0.00,VWS V14.01,2013-01-12 23:00:00,
2013-01-12 18:30:00,69.4,61.5,30.03,North,0,0.0,0.0,76,0.00,,---,0.00,VWS V14.01,2013-01-12 23:30:00,
2013-01-12 19:00:00,66.6,60.6,30.03,North,0,0.0,0.0,81,0.00,,---,0.00,VWS V14.01,2013-01-13 00:00:00,
2013-01-12 19:30:00,64.5,59.9,30.03,North,0,0.0,0.0,85,0.00,,---,0.00,VWS V14.01,2013-01-13 00:30:00,
2013-01-12 20:00:00,62.9,59.0,30.03,North,0,0.0,0.0,87,0.00,,---,0.00,VWS V14.01,2013-01-13 01:00:00,
2013-01-12 20:30:00,61.8,58.5,30.03,North,0,0.0,0.0,89,0.00,,---,0.00,VWS V14.01,2013-01-13 01:30:00,
2013-01-12 21:00:00,61.2,58.6,30.03,North,0,0.0,0.0,91,0.00,,---,0.00,VWS V14.01,2013-01-13 02:00:00,
2013-01-12 21:30:00,61.2,58.9,30.03,North,0,0.0,0.0,92,0.00,,---,0.00,VWS V14.01,2013-01-13 02:30:00,
2013-01-12 22:00:00,60.5,58.2,30.04,North,0,0.0,0.0,92,0.00,,---,0.00,VWS V14.01,2013-01-13 03:00:00,
2013-01-12 22:30:00,60.5,58.5,30.03,North,0,0.0,0.0,93,0.00,,---,0.00,VWS V14.01,2013-01-13 03:30:00,
2013-01-12 23:00:00,60.2,58.2,30.04,North,0,0.0,0.0,93,0.00,,---,0.00,VWS V14.01,2013-01-13 04:00:00,
2013-01-12 23:30:00,59.6,57.9,30.04,North,0,0.0,0.0,94,0.00,,---,0.00,VWS V14.01,2013-01-13 04:30:00,